Time;durP1;ratioP1;P1;durP2;ratioP2;P2;SDS_P1;SDS_P2;PMS_P1;PMS_P2;Temp;Humidity;BMP_temperature;BMP_pressure;BME280_temperature;BME280_humidity;BME280_pressure;Samples;Min_cycle;Max_cycle;Signal;HPM_P1;HPM_P2
2021/12/14 00:02:12;;;;;;;3.25;2.08;;;;;;;13.52;53.35;102337.50;4991786;28;20045;-74
2021/12/14 00:04:41;;;;;;;3.28;1.85;;;;;;;13.53;53.37;102331.09;5038132;28;20496;-75
2021/12/14 00:07:12;;;;;;;3.47;2.00;;;;;;;13.54;53.42;102333.72;5031849;28;20041;-75
2021/12/14 00:09:41;;;;;;;3.67;2.00;;;;;;;13.53;53.51;102339.25;5031266;28;20045;-75
2021/12/14 00:12:29;;;;;;;3.08;1.95;;;;;;;13.52;53.64;102330.19;5026100;28;20124;-74
2021/12/14 00:15:03;;;;;;;3.85;2.45;;;;;;;13.52;53.32;102329.31;5030475;28;20053;-75
2021/12/14 00:18:03;;;;;;;3.08;1.90;;;;;;;13.49;53.11;102332.22;5028864;28;20535;-74
2021/12/14 00:20:53;;;;;;;3.30;1.90;;;;;;;13.50;53.68;102334.88;5018413;28;20076;-74
2021/12/14 00:26:12;;;;;;;3.33;1.98;;;;;;;13.50;53.39;102336.72;5020421;28;20150;-75
2021/12/14 00:28:40;;;;;;;4.50;2.25;;;;;;;13.49;53.61;102335.84;5024791;28;20104;-75
2021/12/14 00:31:10;;;;;;;3.30;2.05;;;;;;;13.51;53.64;102339.34;5024260;28;20042;-74
2021/12/14 00:33:39;;;;;;;3.55;1.80;;;;;;;13.50;53.63;102339.47;5024113;28;20500;-74
2021/12/14 00:36:08;;;;;;;4.10;2.28;;;;;;;13.50;53.40;102334.88;5018870;28;20104;-74
2021/12/14 00:38:37;;;;;;;3.58;1.85;;;;;;;13.51;53.60;102335.72;5031335;28;20054;-75
2021/12/14 00:41:08;;;;;;;3.65;1.98;;;;;;;13.51;53.28;102328.44;5039076;28;20142;-74
2021/12/14 00:43:36;;;;;;;3.13;1.63;;;;;;;13.49;53.54;102322.22;5030847;28;20107;-75
2021/12/14 00:46:03;;;;;;;4.05;2.40;;;;;;;13.50;53.50;102325.81;5030709;28;20142;-74
2021/12/14 00:48:30;;;;;;;3.10;1.88;;;;;;;13.50;53.58;102314.91;5025956;28;20050;-74
2021/12/14 00:50:59;;;;;;;2.83;1.88;;;;;;;13.51;53.69;102312.06;5027907;28;20045;-74
2021/12/14 00:53:27;;;;;;;3.60;1.90;;;;;;;13.50;53.76;102312.19;5031034;28;20050;-74
2021/12/14 00:55:56;;;;;;;3.75;2.20;;;;;;;13.49;53.12;102318.59;5030815;28;20049;-75
2021/12/14 00:58:24;;;;;;;4.35;2.10;;;;;;;13.50;53.70;102325.81;5025143;28;20084;-75
2021/12/14 01:01:01;;;;;;;3.97;2.30;;;;;;;13.51;53.11;102325.69;5029050;28;20053;-74
2021/12/14 01:03:32;;;;;;;4.25;1.95;;;;;;;13.49;53.40;102324.94;5028864;28;20125;-74
2021/12/14 01:06:00;;;;;;;4.72;2.20;;;;;;;13.48;53.21;102322.28;5029917;28;20081;-74
2021/12/14 01:08:34;;;;;;;3.15;1.90;;;;;;;13.49;53.63;102316.75;5030322;28;20152;-74
2021/12/14 01:11:07;;;;;;;3.28;2.00;;;;;;;13.49;53.70;102321.31;5043949;28;20076;-74
2021/12/14 01:13:41;;;;;;;3.03;1.73;;;;;;;13.47;53.47;102318.66;5044122;28;20103;-74
2021/12/14 01:16:29;;;;;;;4.00;2.10;;;;;;;13.48;53.28;102316.81;5025471;28;20128;-73
2021/12/14 01:19:13;;;;;;;3.13;1.83;;;;;;;13.48;53.49;102319.56;5029099;28;20165;-74
2021/12/14 01:27:18;;;;;;;3.50;2.13;;;;;;;13.43;53.52;102305.28;5028168;28;20505;-74
2021/12/14 01:29:48;;;;;;;3.22;1.85;;;;;;;13.45;53.22;102303.34;5026431;28;20076;-73
2021/12/14 01:32:18;;;;;;;4.07;2.20;;;;;;;13.44;53.57;102298.84;5030320;28;20088;-73
2021/12/14 01:34:45;;;;;;;3.85;2.33;;;;;;;13.43;53.35;102313.44;5038280;28;20081;-74
2021/12/14 01:37:19;;;;;;;3.53;2.10;;;;;;;13.45;53.27;102319.72;5018235;28;20081;-73
2021/12/14 01:42:28;;;;;;;3.92;2.03;;;;;;;13.45;53.34;102328.78;5030958;28;20077;-73
2021/12/14 01:45:20;;;;;;;4.75;2.40;;;;;;;13.43;52.96;102338.00;5028704;28;20111;-73
2021/12/14 01:47:56;;;;;;;4.65;2.05;;;;;;;13.44;53.41;102334.31;5003313;28;20088;-73
2021/12/14 01:50:35;;;;;;;4.40;2.25;;;;;;;13.44;53.13;102334.31;5026635;28;20068;-73
2021/12/14 01:53:03;;;;;;;3.88;2.30;;;;;;;13.42;53.28;102336.28;5021452;28;20095;-73
2021/12/14 01:55:34;;;;;;;3.78;2.15;;;;;;;13.42;53.47;102339.00;5029512;28;20091;-73
2021/12/14 01:58:05;;;;;;;4.43;2.20;;;;;;;13.42;53.15;102348.06;5030268;28;20053;-73
2021/12/14 02:00:46;;;;;;;3.92;2.13;;;;;;;13.42;53.31;102334.44;5021005;28;20385;-73
2021/12/14 02:03:15;;;;;;;3.95;2.15;;;;;;;13.39;53.42;102331.84;5030214;28;20057;-73
2021/12/14 02:05:47;;;;;;;4.35;2.33;;;;;;;13.40;53.45;102341.81;5026331;28;20112;-73
2021/12/14 02:08:24;;;;;;;3.38;2.10;;;;;;;13.40;53.63;102332.75;5030149;28;20045;-73
2021/12/14 02:10:52;;;;;;;3.95;2.40;;;;;;;13.39;53.45;102333.69;5034438;28;20145;-73
2021/12/14 02:13:30;;;;;;;3.60;2.03;;;;;;;13.41;53.20;102326.31;5038014;28;20467;-73
2021/12/14 02:15:57;;;;;;;4.45;2.30;;;;;;;13.38;53.19;102319.19;5037752;28;20151;-73
2021/12/14 02:18:49;;;;;;;4.43;2.42;;;;;;;13.38;53.39;102302.81;5028670;28;20489;-73
2021/12/14 02:21:17;;;;;;;4.13;2.50;;;;;;;13.36;53.19;102315.66;5026787;28;20131;-73
2021/12/14 02:23:48;;;;;;;5.18;2.60;;;;;;;13.40;52.89;102328.16;5030350;28;20123;-73
2021/12/14 02:26:19;;;;;;;4.82;2.65;;;;;;;13.40;52.75;102330.91;5026172;28;20054;-73
2021/12/14 02:28:46;;;;;;;5.18;2.80;;;;;;;13.38;52.95;102331.94;5021994;28;20072;-73
2021/12/14 02:31:18;;;;;;;4.47;2.65;;;;;;;13.37;53.00;102305.63;5007292;28;20048;-73
2021/12/14 02:33:48;;;;;;;4.90;2.30;;;;;;;13.34;53.24;102293.06;5022169;28;20522;-73
2021/12/14 02:36:23;;;;;;;5.22;2.63;;;;;;;13.33;53.17;102288.56;5029215;28;20500;-73
2021/12/14 02:39:04;;;;;;;4.95;2.60;;;;;;;13.29;53.13;102281.50;5023751;28;20057;-73
2021/12/14 02:41:31;;;;;;;4.47;2.60;;;;;;;13.27;53.29;102265.22;5024515;28;20075;-73
2021/12/14 02:43:59;;;;;;;5.60;2.85;;;;;;;13.27;53.20;102251.56;5035601;28;20148;-73
2021/12/14 02:46:32;;;;;;;4.90;2.65;;;;;;;13.28;53.14;102252.44;5028815;28;20081;-73
2021/12/14 02:49:03;;;;;;;5.85;3.08;;;;;;;13.26;53.12;102263.44;5029187;28;20061;-73
2021/12/14 02:51:50;;;;;;;5.97;3.10;;;;;;;13.25;53.36;102260.81;5020062;28;20191;-73
2021/12/14 02:54:24;;;;;;;5.80;2.85;;;;;;;13.26;53.26;102263.44;5028393;28;20069;-73
2021/12/14 02:56:56;;;;;;;5.35;3.22;;;;;;;13.26;52.72;102274.34;5025666;28;20043;-73
2021/12/14 02:59:29;;;;;;;7.75;3.33;;;;;;;13.26;52.92;102279.81;5022442;28;20199;-73
2021/12/14 03:02:03;;;;;;;6.72;3.67;;;;;;;13.24;52.83;102269.97;5028464;28;20053;-73
2021/12/14 03:04:32;;;;;;;6.47;3.90;;;;;;;13.22;53.15;102272.78;5028876;28;20586;-74
2021/12/14 03:07:00;;;;;;;6.18;3.35;;;;;;;13.24;52.60;102279.03;5029378;28;20125;-73
2021/12/14 03:12:17;;;;;;;6.43;3.30;;;;;;;13.21;53.20;102278.31;5025207;28;20448;-73
2021/12/14 03:15:09;;;;;;;6.03;3.25;;;;;;;13.17;53.04;102254.91;5032252;28;20096;-74
2021/12/14 03:17:37;;;;;;;5.72;3.30;;;;;;;13.16;53.52;102243.13;5013997;28;20132;-73
2021/12/14 03:20:18;;;;;;;6.38;3.42;;;;;;;13.20;53.09;102235.63;5030303;28;20068;-73
2021/12/14 03:22:57;;;;;;;7.25;3.28;;;;;;;13.19;53.35;102229.31;5032227;28;20057;-73
2021/12/14 03:25:24;;;;;;;5.88;3.10;;;;;;;13.15;53.31;102225.00;5030012;28;20124;-73
2021/12/14 03:27:52;;;;;;;7.28;3.70;;;;;;;13.17;53.40;102236.72;5031698;28;20072;-73
2021/12/14 03:30:27;;;;;;;7.60;3.47;;;;;;;13.16;53.48;102232.22;5031582;28;20125;-73
2021/12/14 03:33:00;;;;;;;6.65;3.83;;;;;;;13.17;53.46;102239.44;5033470;28;20059;-74
2021/12/14 03:35:49;;;;;;;8.88;3.85;;;;;;;13.18;53.12;102229.38;5027299;28;20140;-73
2021/12/14 03:38:23;;;;;;;6.15;3.25;;;;;;;13.18;53.25;102222.09;5030092;28;20128;-74
2021/12/14 03:41:13;;;;;;;6.95;4.10;;;;;;;13.18;53.33;102227.53;5044654;28;20392;-73
2021/12/14 03:43:52;;;;;;;6.70;3.38;;;;;;;13.18;53.44;102240.28;5031927;28;20166;-73
2021/12/14 03:46:19;;;;;;;7.47;4.07;;;;;;;13.18;53.58;102234.84;5032138;28;20164;-73
2021/12/14 03:48:46;;;;;;;7.57;4.72;;;;;;;13.18;53.28;102232.09;5032416;28;20168;-73
2021/12/14 03:51:19;;;;;;;8.30;4.15;;;;;;;13.19;53.28;102250.22;5029456;28;20411;-74
2021/12/14 03:53:47;;;;;;;7.73;4.03;;;;;;;13.14;53.15;102241.44;5025677;28;20048;-73
2021/12/14 03:56:14;;;;;;;7.78;4.22;;;;;;;13.15;53.34;102254.13;5030289;28;20124;-73
2021/12/14 03:58:42;;;;;;;8.25;4.32;;;;;;;13.13;53.32;102262.38;5029939;28;20856;-73
2021/12/14 04:01:14;;;;;;;7.68;4.18;;;;;;;13.15;52.92;102259.56;5018938;28;20046;-73
2021/12/14 04:03:43;;;;;;;8.40;4.93;;;;;;;13.11;53.27;102271.56;5023831;28;20384;-73
2021/12/14 04:06:10;;;;;;;8.82;4.30;;;;;;;13.11;53.52;102268.84;5043071;28;20037;-73
2021/12/14 04:08:37;;;;;;;8.73;4.50;;;;;;;13.10;53.17;102259.78;5032618;28;20132;-73
2021/12/14 04:11:06;;;;;;;8.93;5.13;;;;;;;13.10;53.42;102259.78;5030933;28;20096;-73
2021/12/14 04:13:37;;;;;;;9.43;5.20;;;;;;;13.12;53.24;102265.16;5032080;28;20068;-73
2021/12/14 04:16:05;;;;;;;9.55;5.80;;;;;;;13.10;53.63;102269.78;5032104;28;20041;-73
2021/12/14 04:18:33;;;;;;;8.88;5.60;;;;;;;13.09;53.46;102249.84;5031801;28;20042;-73
2021/12/14 04:21:00;;;;;;;10.60;5.60;;;;;;;13.09;53.40;102266.22;5030416;28;20115;-73
2021/12/14 04:23:32;;;;;;;9.32;5.28;;;;;;;13.10;53.55;102265.22;5030335;28;20111;-75
2021/12/14 04:26:01;;;;;;;9.57;5.25;;;;;;;13.11;53.41;102266.09;5032113;28;20099;-73
2021/12/14 04:28:35;;;;;;;8.80;4.90;;;;;;;13.12;53.38;102262.41;5030416;28;20081;-73
2021/12/14 04:31:08;;;;;;;8.90;5.05;;;;;;;13.11;53.41;102258.81;5031088;28;20132;-73
2021/12/14 04:33:40;;;;;;;10.38;5.38;;;;;;;13.11;53.62;102257.94;5027060;28;20077;-73
2021/12/14 04:36:10;;;;;;;10.27;5.60;;;;;;;13.10;53.61;102258.88;5027524;28;20137;-72
2021/12/14 04:38:48;;;;;;;10.55;5.32;;;;;;;13.08;53.62;102259.00;5031000;28;20041;-74
2021/12/14 04:53:25;;;;;;;11.88;5.80;;;;;;;13.00;53.98;102290.38;5023572;28;20128;-73
2021/12/14 04:55:55;;;;;;;12.25;5.45;;;;;;;13.01;54.03;102279.38;5030264;28;20124;-73
2021/12/14 04:58:28;;;;;;;11.65;5.80;;;;;;;13.03;54.10;102280.16;5025803;28;20050;-73
2021/12/14 05:00:56;;;;;;;11.05;5.88;;;;;;;13.01;53.52;102287.56;5029280;28;20095;-73
2021/12/14 05:03:28;;;;;;;11.82;5.93;;;;;;;13.03;53.68;102274.72;5027185;28;20050;-73
2021/12/14 05:06:10;;;;;;;8.95;5.15;;;;;;;13.01;53.59;102273.94;5025494;28;20041;-75
2021/12/14 05:11:12;;;;;;;10.80;5.38;;;;;;;13.00;53.66;102291.25;5041394;28;20044;-73
2021/12/14 05:13:45;;;;;;;10.35;5.85;;;;;;;13.00;53.72;102282.19;5029258;28;20049;-73
2021/12/14 05:16:23;;;;;;;10.82;6.22;;;;;;;13.00;54.28;102274.00;5030995;28;20049;-73
2021/12/14 05:18:57;;;;;;;10.95;5.82;;;;;;;12.98;54.00;102285.00;5026411;28;20045;-73
2021/12/14 05:21:28;;;;;;;10.77;5.57;;;;;;;12.94;53.89;102278.81;5023395;28;20152;-73
2021/12/14 05:23:56;;;;;;;11.05;6.03;;;;;;;12.94;53.67;102272.47;5027933;28;20484;-75
2021/12/14 05:26:23;;;;;;;10.55;6.10;;;;;;;12.94;53.76;102278.81;5030813;28;20547;-73
2021/12/14 05:28:53;;;;;;;12.05;6.35;;;;;;;12.93;54.01;102276.16;5021129;28;20046;-73
2021/12/14 05:31:21;;;;;;;10.55;5.78;;;;;;;12.92;53.89;102282.63;5028479;28;20171;-73
2021/12/14 05:33:47;;;;;;;11.75;5.88;;;;;;;12.91;53.55;102289.03;5029855;28;20051;-73
2021/12/14 05:36:19;;;;;;;13.05;6.43;;;;;;;12.93;53.96;102289.78;5029396;28;20424;-73
2021/12/14 05:44:17;;;;;;;11.25;5.47;;;;;;;12.92;54.29;102271.72;5028934;28;20149;-73
2021/12/14 05:46:50;;;;;;;10.65;5.80;;;;;;;12.89;54.51;102259.13;5030460;28;20477;-73
2021/12/14 05:49:24;;;;;;;;;;;;;;;12.69;54.69;102264.75;5025563;28;20049;-73
2021/12/14 05:51:51;;;;;;;;;;;;;;;12.64;54.96;102263.22;5028691;28;19955;-73
2021/12/14 05:54:30;;;;;;;9.30;4.93;;;;;;;12.86;54.04;102263.84;5012906;28;19921;-73
2021/12/14 05:57:34;;;;;;;11.98;6.22;;;;;;;12.88;54.68;102262.78;5026228;28;20077;-74
2021/12/14 06:00:27;;;;;;;11.55;5.60;;;;;;;12.86;54.51;102266.56;5012419;28;20055;-73
2021/12/14 06:02:54;;;;;;;11.43;6.07;;;;;;;12.86;54.58;102259.25;5020996;28;20496;-74
2021/12/14 06:05:22;;;;;;;11.57;5.95;;;;;;;12.88;54.55;102256.47;5030142;28;20069;-74
2021/12/14 06:07:50;;;;;;;12.18;5.97;;;;;;;12.88;54.52;102249.16;5035683;28;20045;-74
2021/12/14 06:10:22;;;;;;;10.63;6.18;;;;;;;12.90;54.64;102246.38;5014787;28;20125;-73
2021/12/14 06:12:49;;;;;;;10.20;5.82;;;;;;;12.88;54.50;102256.47;5033021;28;20128;-74
2021/12/14 06:15:25;;;;;;;10.02;5.43;;;;;;;12.91;54.54;102253.59;5028757;28;20176;-74
2021/12/14 06:17:55;;;;;;;11.75;6.22;;;;;;;12.90;54.59;102263.59;5025747;28;20092;-73
2021/12/14 06:20:26;;;;;;;11.55;5.97;;;;;;;12.95;54.28;102266.06;5010358;28;20045;-73
2021/12/14 06:22:54;;;;;;;10.45;5.70;;;;;;;12.92;54.48;102264.41;5030396;28;20045;-73
2021/12/14 06:25:27;;;;;;;12.23;6.20;;;;;;;12.95;54.60;102266.94;5020541;28;20061;-74
2021/12/14 06:27:58;;;;;;;12.88;6.40;;;;;;;12.92;54.70;102263.53;5030919;28;20053;-73
2021/12/14 06:30:27;;;;;;;10.27;5.68;;;;;;;12.94;54.42;102272.47;5028440;28;20045;-74
2021/12/14 06:33:04;;;;;;;10.80;6.03;;;;;;;12.95;54.45;102282.41;5007465;28;20378;-74
2021/12/14 06:35:37;;;;;;;10.85;5.65;;;;;;;12.95;54.71;102291.47;5027339;28;20079;-74
2021/12/14 06:40:35;;;;;;;10.43;5.38;;;;;;;12.92;54.08;102283.50;5036259;28;20076;-73
2021/12/14 06:43:08;;;;;;;8.85;5.15;;;;;;;12.94;54.64;102278.81;5027438;28;20049;-73
2021/12/14 06:45:37;;;;;;;;;;;;;;;12.71;55.18;102284.63;5029267;28;20095;-73
2021/12/14 06:48:13;;;;;;;9.27;4.97;;;;;;;12.90;54.60;102282.69;5027514;28;19983;-73
2021/12/14 06:50:49;;;;;;;9.00;4.82;;;;;;;12.93;54.64;102289.78;5014284;28;20428;-73
2021/12/14 06:53:18;;;;;;;8.52;5.22;;;;;;;12.91;54.37;102286.28;5029604;28;20081;-73
2021/12/14 06:55:46;;;;;;;10.57;6.60;;;;;;;12.90;54.56;102290.88;5029489;28;20079;-73
2021/12/14 06:58:16;;;;;;;8.55;5.00;;;;;;;12.91;54.53;102292.63;5028815;28;20081;-73
2021/12/14 07:00:49;;;;;;;9.50;5.55;;;;;;;12.91;54.66;102292.63;5028035;28;20493;-73
2021/12/14 07:03:17;;;;;;;8.98;5.22;;;;;;;12.90;54.32;102292.72;5026612;28;20049;-73
2021/12/14 07:05:50;;;;;;;10.45;6.07;;;;;;;12.92;54.44;102305.31;5026356;28;20147;-73
2021/12/14 07:08:24;;;;;;;10.35;5.72;;;;;;;12.90;54.38;102311.78;5027267;28;20052;-73
2021/12/14 07:10:52;;;;;;;10.13;5.70;;;;;;;12.88;54.46;102308.25;5026769;28;20050;-73
2021/12/14 07:13:27;;;;;;;10.05;5.47;;;;;;;12.89;54.76;102313.63;5020691;28;20046;-73
2021/12/14 07:15:54;;;;;;;9.15;5.30;;;;;;;12.88;54.68;102327.34;5014873;28;20074;-73
2021/12/14 07:18:28;;;;;;;9.18;5.30;;;;;;;12.90;54.55;102333.59;5029539;28;20413;-73
2021/12/14 07:20:55;;;;;;;10.23;6.07;;;;;;;12.89;54.40;102320.94;5013491;28;20041;-73
2021/12/14 07:23:29;;;;;;;11.30;6.18;;;;;;;12.91;54.53;102327.19;5026618;28;20115;-73
2021/12/14 07:26:04;;;;;;;11.50;6.32;;;;;;;12.91;54.70;102319.88;5022868;28;20041;-76
2021/12/14 07:28:37;;;;;;;8.80;5.28;;;;;;;12.89;54.41;102312.75;5025652;28;20484;-73
2021/12/14 07:31:13;;;;;;;10.95;5.47;;;;;;;12.91;54.69;102316.28;5029238;28;20060;-73
2021/12/14 07:33:45;;;;;;;11.15;5.80;;;;;;;12.89;54.79;102321.81;5025895;28;20060;-74
2021/12/14 07:36:20;;;;;;;9.70;5.47;;;;;;;12.88;54.59;102341.84;5028872;28;20707;-74
2021/12/14 07:38:59;;;;;;;10.85;5.45;;;;;;;12.89;54.55;102332.72;5026264;28;20304;-74
2021/12/14 07:41:39;;;;;;;10.40;5.78;;;;;;;12.90;54.74;102344.50;5030585;28;20045;-76
2021/12/14 07:44:12;;;;;;;10.02;5.30;;;;;;;12.90;54.75;102348.09;5026650;28;20069;-72
2021/12/14 07:46:43;;;;;;;10.45;5.78;;;;;;;12.89;54.79;102356.38;5020663;28;20132;-76
2021/12/14 07:49:23;;;;;;;10.65;5.90;;;;;;;12.92;54.90;102361.66;5027986;28;20045;-76
2021/12/14 07:52:14;;;;;;;10.00;5.78;;;;;;;12.90;54.69;102377.22;5035671;28;20479;-76
2021/12/14 07:54:46;;;;;;;10.68;6.45;;;;;;;12.89;54.70;102375.44;5026312;28;20635;-76
2021/12/14 07:57:18;;;;;;;10.77;6.15;;;;;;;12.89;55.12;102384.50;5024094;28;20125;-76
2021/12/14 07:59:55;;;;;;;10.50;5.95;;;;;;;12.89;54.74;102387.22;5026126;28;20521;-75
2021/12/14 08:02:23;;;;;;;8.80;5.50;;;;;;;12.89;54.94;102378.16;5031844;28;20057;-74
2021/12/14 08:04:54;;;;;;;10.50;5.72;;;;;;;12.90;54.69;102375.38;5027697;28;20053;-74
2021/12/14 08:07:33;;;;;;;10.23;5.68;;;;;;;12.93;54.61;102375.19;5029189;28;20092;-74
2021/12/14 08:10:06;;;;;;;10.52;5.75;;;;;;;12.92;54.76;102386.19;5032764;28;20045;-74
2021/12/14 08:12:46;;;;;;;10.10;5.73;;;;;;;12.91;54.76;102406.25;5030818;28;20053;-74
2021/12/14 08:15:16;;;;;;;10.15;5.90;;;;;;;12.91;54.76;102400.78;5030033;28;20075;-75
2021/12/14 08:17:44;;;;;;;9.15;5.40;;;;;;;12.90;54.72;102401.75;5027742;28;20481;-74
2021/12/14 08:20:21;;;;;;;9.55;5.35;;;;;;;12.93;54.32;102405.19;5040278;28;20062;-75
2021/12/14 08:22:56;;;;;;;10.15;5.85;;;;;;;12.91;54.88;102392.59;5031886;28;20068;-74
2021/12/14 08:25:27;;;;;;;8.73;5.40;;;;;;;12.92;54.45;102397.09;5025393;28;20133;-74
2021/12/14 08:28:00;;;;;;;9.63;5.30;;;;;;;12.92;54.77;102402.56;5026672;28;20057;-74
2021/12/14 08:30:28;;;;;;;9.25;5.32;;;;;;;12.92;54.56;102416.19;5032596;28;20060;-74
2021/12/14 08:32:55;;;;;;;9.65;5.63;;;;;;;12.90;54.84;102416.25;5047227;28;20080;-74
2021/12/14 08:35:22;;;;;;;10.73;5.30;;;;;;;12.91;54.52;102425.31;5031227;28;20053;-74
2021/12/14 08:37:57;;;;;;;9.20;5.65;;;;;;;12.91;54.75;102423.47;5028858;28;20536;-74
2021/12/14 08:40:32;;;;;;;9.27;5.00;;;;;;;12.93;54.53;102412.47;5026796;28;20045;-75
2021/12/14 08:43:11;;;;;;;9.65;5.10;;;;;;;12.92;54.68;102416.19;5041946;28;20100;-74
2021/12/14 08:45:44;;;;;;;9.15;5.45;;;;;;;12.92;54.69;102421.63;5031858;28;20053;-75
2021/12/14 08:48:29;;;;;;;9.13;5.35;;;;;;;12.90;54.65;102420.81;5031990;28;20092;-74
2021/12/14 08:51:17;;;;;;;9.45;5.45;;;;;;;12.90;54.54;102418.09;5031388;28;20033;-74
2021/12/14 08:53:55;;;;;;;9.05;5.07;;;;;;;12.89;54.36;102406.31;5046243;28;20103;-74
2021/12/14 08:56:24;;;;;;;10.38;5.68;;;;;;;12.88;54.62;102403.66;5022500;28;20148;-75
2021/12/14 08:58:51;;;;;;;10.80;5.43;;;;;;;12.88;54.75;102396.38;5030761;28;20124;-74
2021/12/14 09:01:23;;;;;;;9.65;5.65;;;;;;;12.89;54.32;102394.53;5027575;28;20068;-74
2021/12/14 09:04:07;;;;;;;9.38;5.32;;;;;;;12.89;54.34;102403.59;5029798;28;20050;-74
2021/12/14 09:06:36;;;;;;;9.18;4.85;;;;;;;12.88;54.28;102400.94;5013980;28;20045;-75
2021/12/14 09:09:11;;;;;;;9.95;5.55;;;;;;;12.86;54.44;102403.72;5026837;28;20658;-75
2021/12/14 09:11:40;;;;;;;10.73;5.95;;;;;;;12.87;54.95;102396.44;5027601;28;20041;-75
2021/12/14 09:14:09;;;;;;;9.57;5.20;;;;;;;12.88;54.61;102393.63;5028818;28;20424;-75
2021/12/14 09:16:50;;;;;;;8.75;4.50;;;;;;;12.89;54.15;102392.69;5027253;28;20084;-75
2021/12/14 09:19:26;;;;;;;9.93;5.70;;;;;;;12.90;54.81;102396.28;5003468;28;20508;-75
2021/12/14 09:21:56;;;;;;;9.30;5.07;;;;;;;12.89;54.54;102402.69;5023290;28;20103;-75
2021/12/14 09:24:25;;;;;;;11.63;6.75;;;;;;;12.89;54.51;102403.59;5027025;28;20049;-75
2021/12/14 09:26:57;;;;;;;9.18;5.35;;;;;;;12.91;54.77;102414.41;5030935;28;20071;-75
2021/12/14 09:29:26;;;;;;;9.53;5.40;;;;;;;12.87;54.55;102410.06;5026138;28;20054;-74
2021/12/14 09:31:58;;;;;;;11.25;5.88;;;;;;;12.91;54.53;102409.84;5026512;28;20350;-74
2021/12/14 09:34:28;;;;;;;9.25;5.38;;;;;;;12.88;54.69;102415.44;5029827;28;20037;-74
2021/12/14 09:36:58;;;;;;;8.73;5.22;;;;;;;12.90;54.58;102418.09;5030984;28;20132;-74
2021/12/14 09:39:34;;;;;;;9.00;5.05;;;;;;;12.92;54.32;102421.63;5025307;28;20091;-74
2021/12/14 09:42:04;;;;;;;9.80;5.53;;;;;;;12.91;54.53;102423.47;5023198;28;20393;-74
2021/12/14 09:44:32;;;;;;;10.55;5.40;;;;;;;12.92;54.85;102429.81;5030372;28;20420;-74
2021/12/14 09:47:05;;;;;;;11.48;5.97;;;;;;;12.93;54.65;102426.97;5028864;28;20257;-74
2021/12/14 09:49:32;;;;;;;9.30;5.93;;;;;;;12.92;54.70;102421.63;5022460;28;20042;-74
2021/12/14 09:52:08;;;;;;;11.35;6.28;;;;;;;12.96;54.85;102424.13;5022514;28;20438;-73
2021/12/14 09:54:36;;;;;;;9.98;6.13;;;;;;;12.95;54.49;102424.19;5026845;28;20049;-73
2021/12/14 09:57:03;;;;;;;9.75;5.45;;;;;;;12.95;54.64;102411.44;5024729;28;20119;-73
2021/12/14 09:59:30;;;;;;;10.43;5.50;;;;;;;12.98;54.42;102421.31;5053792;28;20049;-73
2021/12/14 10:02:08;;;;;;;10.07;5.38;;;;;;;13.01;54.74;102420.28;5012529;28;20049;-73
2021/12/14 10:04:41;;;;;;;10.07;4.97;;;;;;;13.00;54.76;102422.13;5028648;28;20142;-73
2021/12/14 10:07:09;;;;;;;9.48;5.25;;;;;;;12.99;54.38;102422.19;5020739;28;20049;-73
2021/12/14 10:09:43;;;;;;;9.80;5.15;;;;;;;13.03;54.47;102421.06;5026153;28;20068;-73
2021/12/14 10:15:24;;;;;;;10.60;5.45;;;;;;;13.02;54.46;102422.00;5018325;28;20107;-73
2021/12/14 10:17:53;;;;;;;10.45;5.25;;;;;;;13.04;54.64;102431.88;5026746;28;20060;-73
2021/12/14 10:20:32;;;;;;;10.10;6.00;;;;;;;13.09;54.60;102437.13;5020033;28;20080;-73
2021/12/14 10:23:16;;;;;;;9.43;5.72;;;;;;;13.09;54.71;102434.41;5025821;28;20136;-73
2021/12/14 10:25:43;;;;;;;10.95;5.78;;;;;;;13.07;54.49;102444.50;5023136;28;20049;-73
2021/12/14 10:28:10;;;;;;;9.75;5.80;;;;;;;13.08;54.69;102438.97;5020844;28;20132;-74
2021/12/14 10:30:56;;;;;;;10.57;5.82;;;;;;;13.10;54.64;102447.91;5022488;28;20088;-73
2021/12/14 10:33:25;;;;;;;10.07;5.55;;;;;;;13.09;54.46;102435.28;5022517;28;20049;-73
2021/12/14 10:35:58;;;;;;;10.35;5.43;;;;;;;13.11;54.48;102429.72;5029006;28;20084;-73
2021/12/14 10:38:34;;;;;;;8.70;5.03;;;;;;;13.11;54.64;102427.00;5029930;28;20045;-73
2021/12/14 10:44:02;;;;;;;9.60;5.30;;;;;;;13.10;54.85;102423.38;5032282;28;20049;-74
2021/12/14 10:46:39;;;;;;;9.40;5.50;;;;;;;13.16;54.72;102436.75;5036291;28;20045;-75
2021/12/14 10:49:06;;;;;;;9.05;5.05;;;;;;;13.15;54.63;102434.97;5032811;28;20041;-74
2021/12/14 10:51:38;;;;;;;9.00;4.95;;;;;;;13.18;54.38;102431.19;5011657;28;20076;-75
2021/12/14 10:54:10;;;;;;;9.52;5.18;;;;;;;13.18;54.76;102421.16;5032263;28;20504;-75
2021/12/14 10:56:46;;;;;;;8.60;5.63;;;;;;;13.20;54.09;102419.25;5024571;28;20128;-75
2021/12/14 10:59:15;;;;;;;9.15;5.60;;;;;;;13.20;54.76;102418.38;5021593;28;20099;-75
2021/12/14 11:01:49;;;;;;;8.30;4.55;;;;;;;13.20;54.70;102412.91;5035116;28;20052;-75
2021/12/14 11:04:21;;;;;;;9.27;4.82;;;;;;;13.23;54.22;102405.47;5013437;28;20447;-76
2021/12/14 11:06:57;;;;;;;10.10;5.87;;;;;;;13.22;54.40;102416.44;5021966;28;20079;-77
2021/12/14 11:09:47;;;;;;;8.55;4.88;;;;;;;13.23;54.23;102416.38;5031113;28;20114;-76
2021/12/14 11:12:27;;;;;;;10.80;5.63;;;;;;;13.25;54.57;102405.38;5028243;28;20524;-76
2021/12/14 11:14:58;;;;;;;9.18;5.25;;;;;;;13.24;54.25;102404.50;5026316;28;20527;-76
2021/12/14 11:20:22;;;;;;;11.95;6.32;;;;;;;13.24;54.64;102403.63;5026082;28;20049;-76
2021/12/14 11:23:06;;;;;;;10.15;6.25;;;;;;;13.27;54.39;102393.41;5024712;28;20619;-77
2021/12/14 11:25:45;;;;;;;9.40;5.47;;;;;;;13.27;54.68;102400.69;5024087;28;20045;-76
2021/12/14 11:28:18;;;;;;;9.32;5.75;;;;;;;13.29;54.53;102398.78;5022738;28;20053;-77
2021/12/14 11:31:03;;;;;;;8.55;5.28;;;;;;;13.29;54.11;102398.78;5003153;28;20555;-76
2021/12/14 11:33:53;;;;;;;10.32;5.47;;;;;;;13.30;54.55;102392.38;5027001;28;20128;-76
2021/12/14 11:36:32;;;;;;;8.63;5.05;;;;;;;13.31;54.35;102389.56;5026692;28;20057;-77
2021/12/14 11:39:24;;;;;;;8.93;4.95;;;;;;;13.29;54.39;102394.22;5030918;28;20064;-76
2021/12/14 11:42:20;;;;;;;9.70;5.30;;;;;;;13.30;54.23;102397.81;5027920;28;20077;-77
2021/12/14 11:45:08;;;;;;;9.07;4.97;;;;;;;13.31;54.28;102395.03;5031291;28;20092;-77
2021/12/14 11:47:42;;;;;;;9.65;4.95;;;;;;;13.34;54.21;102394.84;5026975;28;20124;-76
2021/12/14 11:50:16;;;;;;;9.77;5.05;;;;;;;13.37;54.22;102382.88;5026417;28;20045;-75
2021/12/14 11:52:52;;;;;;;9.63;5.18;;;;;;;13.38;54.34;102389.22;5025673;28;20096;-75
2021/12/14 11:55:37;;;;;;;9.30;4.72;;;;;;;13.41;54.42;102389.06;5038677;28;20152;-75
2021/12/14 11:58:11;;;;;;;8.90;4.70;;;;;;;13.41;54.14;102386.34;5027519;28;20069;-75
2021/12/14 12:00:44;;;;;;;9.20;5.03;;;;;;;13.42;54.20;102391.72;5025631;28;20042;-75
2021/12/14 12:03:22;;;;;;;;;;;;;;;13.20;54.56;102382.91;5027912;28;20049;-74
2021/12/14 12:06:10;;;;;;;8.32;4.72;;;;;;;13.41;54.11;102383.63;5026823;28;20296;-75
2021/12/14 12:11:39;;;;;;;9.02;4.50;;;;;;;13.45;53.90;102387.91;5029342;28;20661;-75
2021/12/14 12:14:20;;;;;;;9.57;4.78;;;;;;;13.46;53.75;102384.22;5035239;28;20088;-75
2021/12/14 12:16:48;;;;;;;11.13;6.00;;;;;;;13.44;54.13;102383.44;5030957;28;20472;-75
2021/12/14 12:19:20;;;;;;;9.52;5.90;;;;;;;13.46;53.93;102376.94;5030167;28;20563;-75
2021/12/14 12:21:48;;;;;;;10.50;5.68;;;;;;;13.44;54.11;102370.66;5015496;28;20045;-74
2021/12/14 12:24:33;;;;;;;10.60;5.53;;;;;;;13.46;53.75;102381.50;5024008;28;20042;-74
2021/12/14 12:27:24;;;;;;;9.73;5.32;;;;;;;13.46;53.78;102386.97;5025259;28;20097;-74
2021/12/14 12:30:09;;;;;;;9.27;4.95;;;;;;;13.46;53.84;102386.97;5028125;28;20558;-74
2021/12/14 12:32:36;;;;;;;9.15;4.90;;;;;;;13.45;54.40;102382.47;5029139;28;20046;-75
2021/12/14 12:35:25;;;;;;;9.50;5.25;;;;;;;13.48;54.17;102385.03;5018963;28;20137;-72
2021/12/14 12:37:53;;;;;;;9.68;5.18;;;;;;;13.48;54.18;102385.03;5024565;28;20091;-75
2021/12/14 12:40:33;;;;;;;8.85;4.93;;;;;;;13.51;53.83;102374.81;5013204;28;20045;-75
2021/12/14 12:43:26;;;;;;;10.23;5.15;;;;;;;13.50;54.05;102374.94;5020476;28;20732;-75